createdAt,value
2014-09-07T16:36:03.452Z,515
2014-09-07T16:36:21.065Z,489
2014-09-07T16:36:39.252Z,512
2014-09-07T16:36:57.455Z,524
2014-09-07T16:37:15.643Z,520
2014-09-07T16:37:33.849Z,527
2014-09-07T16:37:52.036Z,484
2014-09-07T16:38:10.239Z,513
2014-09-07T16:38:28.430Z,520
2014-09-07T16:38:46.633Z,488
2014-09-07T16:39:04.821Z,525
2014-09-07T16:39:23.024Z,540
2014-09-07T16:39:41.212Z,533
2014-09-07T16:39:59.415Z,503
2014-09-07T16:40:17.603Z,502
2014-09-07T16:40:35.809Z,507
2014-09-07T16:40:53.996Z,484
2014-09-07T16:41:12.200Z,502
2014-09-07T16:41:30.387Z,512
2014-09-07T16:41:48.577Z,519
2014-09-07T16:42:06.780Z,503
2014-09-07T16:42:24.983Z,495
2014-09-07T16:42:43.171Z,479
2014-09-07T16:43:01.374Z,484
2014-09-07T16:43:19.562Z,482
2014-09-07T16:43:37.765Z,511
2014-09-07T16:43:55.956Z,480
2014-09-07T16:44:14.159Z,513
2014-09-07T16:44:32.362Z,483
2014-09-07T16:44:50.550Z,484
2014-09-07T16:45:08.753Z,493
2014-09-07T16:45:26.941Z,481
2014-09-07T16:45:45.144Z,485
2014-09-07T16:46:03.335Z,484
2014-09-07T16:46:21.538Z,498
2014-09-07T16:46:39.725Z,516
2014-09-07T16:46:57.929Z,520
2014-09-07T16:47:16.117Z,517
2014-09-07T16:47:34.320Z,481
2014-09-07T16:47:52.507Z,517
2014-09-07T16:48:10.713Z,482
2014-09-07T16:48:28.900Z,512
2014-09-07T16:48:47.103Z,481
2014-09-07T16:49:05.294Z,499
2014-09-07T16:49:23.497Z,500
2014-09-07T16:49:41.684Z,483
2014-09-07T16:49:59.887Z,489
2014-09-07T16:50:18.077Z,519
2014-09-07T16:50:36.280Z,483
2014-09-07T16:50:54.468Z,487
2014-09-07T16:51:12.673Z,483
2014-09-07T16:51:30.860Z,516
2014-09-07T16:51:49.063Z,515
2014-09-07T16:52:07.251Z,480
2014-09-07T16:52:25.456Z,518
2014-09-07T16:52:43.643Z,515
2014-09-07T16:53:01.847Z,482
2014-09-07T16:53:20.035Z,495
2014-09-07T16:53:38.238Z,513
2014-09-07T16:53:56.426Z,483
2014-09-07T16:54:14.629Z,518
2014-09-07T16:54:33.054Z,495
2014-09-07T16:54:51.272Z,484
2014-09-07T16:55:09.522Z,483
2014-09-07T16:55:27.759Z,482
2014-09-07T16:55:46.134Z,497
2014-09-07T16:56:04.540Z,493
2014-09-07T16:56:22.821Z,501
2014-09-07T16:56:41.151Z,512
2014-09-07T16:56:59.480Z,515
2014-09-07T16:57:17.964Z,518
2014-09-07T16:57:36.435Z,504
2014-09-07T16:57:54.841Z,509
2014-09-07T16:58:13.028Z,488
2014-09-07T16:58:31.232Z,509
2014-09-07T16:58:49.421Z,514
2014-09-07T16:59:07.624Z,479
2014-09-07T16:59:25.812Z,515
2014-09-07T16:59:44.017Z,518
2014-09-07T17:00:02.204Z,513
2014-09-07T17:00:20.407Z,483
2014-09-07T17:00:38.595Z,484
2014-09-07T17:00:56.800Z,477
2014-09-07T17:01:14.988Z,481
2014-09-07T17:01:33.191Z,505
2014-09-07T17:01:51.380Z,516
2014-09-07T17:02:09.583Z,502
2014-09-07T17:02:27.771Z,498
2014-09-07T17:02:45.974Z,481
2014-09-07T17:03:04.164Z,522
2014-09-07T17:03:22.368Z,487
2014-09-07T17:03:40.555Z,482
2014-09-07T17:03:58.759Z,520
2014-09-07T17:04:16.947Z,489
2014-09-07T17:04:35.134Z,510
2014-09-07T17:04:53.337Z,494
2014-09-07T17:05:11.542Z,482
2014-09-07T17:05:29.730Z,507
2014-09-07T17:05:47.933Z,509
2014-09-07T17:06:06.123Z,515
2014-09-07T17:06:24.326Z,487
2014-09-07T17:06:42.513Z,486
2014-09-07T17:07:00.716Z,514
2014-09-07T17:07:18.906Z,498
2014-09-07T17:07:37.109Z,498
2014-09-07T17:07:55.296Z,481
2014-09-07T17:08:13.503Z,509
2014-09-07T17:08:31.690Z,507
2014-09-07T17:08:49.893Z,485
2014-09-07T17:09:08.081Z,481
2014-09-07T17:09:26.286Z,480
2014-09-07T17:09:44.473Z,483
2014-09-07T17:10:02.676Z,499
2014-09-07T17:10:20.866Z,481
2014-09-07T17:10:39.069Z,520
2014-09-07T17:10:57.257Z,481
2014-09-07T17:11:15.460Z,498
2014-09-07T17:11:33.649Z,481
2014-09-07T17:11:51.852Z,485
2014-09-07T17:12:10.040Z,514
2014-09-07T17:12:28.245Z,485
2014-09-07T17:12:46.448Z,510
2014-09-07T17:13:04.636Z,520
2014-09-07T17:13:22.839Z,506
2014-09-07T17:13:41.028Z,481
2014-09-07T17:13:59.231Z,487
2014-09-07T17:14:17.419Z,516
2014-09-07T17:14:35.624Z,485
2014-09-07T17:14:53.811Z,512
2014-09-07T17:15:12.015Z,480
2014-09-07T17:15:30.202Z,513
2014-09-07T17:15:48.407Z,494
2014-09-07T17:16:06.595Z,479
2014-09-07T17:16:24.798Z,515
2014-09-07T17:16:42.987Z,515
2014-09-07T17:17:01.190Z,483
2014-09-07T17:17:19.378Z,513
2014-09-07T17:17:37.581Z,508
2014-09-07T17:17:55.771Z,515
2014-09-07T17:18:13.974Z,518
2014-09-07T17:18:32.161Z,476
2014-09-07T17:18:50.366Z,520
2014-09-07T17:19:08.554Z,513
2014-09-07T17:19:26.757Z,500
2014-09-07T17:19:44.960Z,493
2014-09-07T17:20:03.150Z,502
2014-09-07T17:20:21.353Z,478
2014-09-07T17:20:39.540Z,504
2014-09-07T17:20:57.745Z,479
2014-09-07T17:21:15.933Z,485
2014-09-07T17:21:34.136Z,492
2014-09-07T17:21:52.339Z,506
2014-09-07T17:22:10.529Z,481
2014-09-07T17:22:28.732Z,485
2014-09-07T17:22:46.919Z,480
2014-09-07T17:23:05.124Z,514
2014-09-07T17:23:23.327Z,513
2014-09-07T17:23:41.515Z,473
2014-09-07T17:23:59.718Z,507
2014-09-07T17:24:17.908Z,496
2014-09-07T17:24:36.111Z,510
2014-09-07T17:24:54.298Z,506
2014-09-07T17:25:12.503Z,501
2014-09-07T17:25:30.706Z,516
2014-09-07T17:25:48.894Z,493
2014-09-07T17:26:07.097Z,495
2014-09-07T17:26:25.303Z,476
2014-09-07T17:26:43.491Z,490
2014-09-07T17:27:01.694Z,482
2014-09-07T17:27:19.882Z,516
2014-09-07T17:27:38.085Z,506
2014-09-07T17:27:56.289Z,488
2014-09-07T17:28:14.492Z,481
2014-09-07T17:28:32.681Z,516
2014-09-07T17:28:50.884Z,492
2014-09-07T17:29:09.072Z,504
2014-09-07T17:29:27.278Z,509
2014-09-07T17:29:45.481Z,515
2014-09-07T17:30:03.669Z,473
2014-09-07T17:30:21.872Z,512
2014-09-07T17:30:40.060Z,475
2014-09-07T17:30:58.263Z,479
2014-09-07T17:31:16.451Z,504
2014-09-07T17:31:34.656Z,475
2014-09-07T17:31:52.843Z,474
2014-09-07T17:32:11.047Z,511
2014-09-07T17:32:29.236Z,495
2014-09-07T17:32:47.439Z,511
2014-09-07T17:33:05.642Z,471
2014-09-07T17:33:23.830Z,502
2014-09-07T17:33:42.035Z,516
2014-09-07T17:34:00.222Z,470
2014-09-07T17:34:18.426Z,506
2014-09-07T17:34:36.788Z,505
2014-09-07T17:34:55.835Z,478
2014-09-07T17:35:14.085Z,490
2014-09-07T17:35:32.272Z,483
2014-09-07T17:35:50.476Z,512
2014-09-07T17:36:08.664Z,486
2014-09-07T17:36:26.867Z,498
2014-09-07T17:36:45.057Z,505
2014-09-07T17:37:03.260Z,513
2014-09-07T17:37:21.447Z,516
2014-09-07T17:37:39.650Z,486
2014-09-07T17:37:57.840Z,476
2014-09-07T17:38:16.043Z,471
2014-09-07T17:38:34.230Z,511
2014-09-07T17:38:52.436Z,509
2014-09-07T17:39:10.623Z,515
2014-09-07T17:39:28.826Z,484
2014-09-07T17:39:47.014Z,479
2014-09-07T17:40:05.219Z,523
2014-09-07T17:40:23.406Z,523
2014-09-07T17:40:41.609Z,522
2014-09-07T17:40:59.800Z,506
2014-09-07T17:41:18.003Z,483
2014-09-07T17:41:36.191Z,487
2014-09-07T17:41:54.394Z,482
2014-09-07T17:42:12.583Z,497
2014-09-07T17:42:30.771Z,511
2014-09-07T17:42:48.974Z,509
2014-09-07T17:43:07.162Z,470
2014-09-07T17:43:25.365Z,512
2014-09-07T17:43:43.553Z,477
2014-09-07T17:44:01.756Z,509
2014-09-07T17:44:19.947Z,513
2014-09-07T17:44:38.150Z,502
2014-09-07T17:44:56.337Z,477
2014-09-07T17:45:14.541Z,512
2014-09-07T17:45:32.729Z,485
2014-09-07T17:45:50.932Z,478
2014-09-07T17:46:09.119Z,474
2014-09-07T17:46:27.325Z,476
2014-09-07T17:46:45.512Z,491
2014-09-07T17:47:03.715Z,488
2014-09-07T17:47:21.906Z,502
2014-09-07T17:47:40.109Z,468
2014-09-07T17:47:58.296Z,472
2014-09-07T17:48:16.499Z,513
2014-09-07T17:48:35.500Z,472
2014-09-07T17:48:53.907Z,502
2014-09-07T17:49:11.860Z,509
2014-09-07T17:49:30.066Z,473
2014-09-07T17:49:48.253Z,504
2014-09-07T17:50:06.457Z,508
2014-09-07T17:50:24.644Z,468
2014-09-07T17:50:42.849Z,472
2014-09-07T17:51:01.037Z,506
2014-09-07T17:51:19.240Z,508
2014-09-07T17:51:37.429Z,470
2014-09-07T17:51:55.632Z,469
2014-09-07T17:52:13.820Z,508
2014-09-07T17:52:32.023Z,507
2014-09-07T17:52:50.213Z,495
2014-09-07T17:53:08.416Z,508
2014-09-07T17:53:26.603Z,476
2014-09-07T17:53:44.808Z,756
2014-09-07T17:54:02.996Z,756
2014-09-07T17:54:21.199Z,756
2014-09-07T17:54:39.386Z,756
2014-09-07T17:54:57.592Z,756
2014-09-07T17:55:15.779Z,756
2014-09-07T17:55:33.982Z,756
2014-09-07T17:55:52.171Z,756
2014-09-07T17:56:10.374Z,756
2014-09-07T17:56:28.561Z,756
2014-09-07T17:56:46.767Z,756
2014-09-07T17:57:04.955Z,773
2014-09-07T17:57:23.158Z,773
2014-09-07T17:57:41.346Z,0
2014-09-07T17:57:59.535Z,0
2014-09-07T17:58:17.723Z,0
2014-09-07T17:58:35.910Z,0
2014-09-07T17:58:54.100Z,0
2014-09-07T17:59:12.287Z,0
2014-09-07T17:59:30.490Z,0
2014-09-07T17:59:48.678Z,0
2014-09-07T18:00:06.867Z,0
2014-09-07T18:00:25.055Z,0
2014-09-07T18:00:43.242Z,0
2014-09-07T18:01:01.432Z,0
2014-09-07T18:01:19.619Z,0
2014-09-07T18:01:37.822Z,0
2014-09-07T18:01:56.010Z,0
2014-09-07T18:02:14.199Z,0
2014-09-07T18:02:32.387Z,0
2014-09-07T18:02:50.574Z,0
2014-09-07T18:03:08.794Z,0
2014-09-07T18:03:26.982Z,0
2014-09-07T18:03:45.482Z,0
2014-09-07T18:04:03.732Z,0
2014-09-07T18:04:21.922Z,0
2014-09-07T18:04:40.110Z,0
2014-09-07T18:04:58.297Z,0
2014-09-07T18:05:16.502Z,0
2014-09-07T18:05:34.690Z,0
2014-09-07T18:05:52.877Z,0
2014-09-07T18:06:11.065Z,0
2014-09-07T18:06:29.254Z,0
2014-09-07T18:06:47.457Z,0
2014-09-07T18:07:05.645Z,0
2014-09-07T18:07:23.834Z,0
2014-09-07T18:07:42.022Z,0
2014-09-07T18:08:00.209Z,0
2014-09-07T18:08:18.412Z,0
2014-09-07T18:08:36.602Z,0
2014-09-07T18:08:54.789Z,0
2014-09-07T18:09:12.977Z,0
2014-09-07T18:09:31.166Z,0
2014-09-07T18:09:49.354Z,0
2014-09-07T18:10:07.541Z,0
2014-09-07T18:10:25.745Z,0
2014-09-07T18:10:43.934Z,0
2014-09-07T18:11:02.122Z,0
2014-09-07T18:11:20.309Z,0
2014-09-07T18:11:38.499Z,0
2014-09-07T18:11:56.686Z,0
2014-09-07T18:12:14.889Z,0
2014-09-07T18:12:33.077Z,0
2014-09-07T18:12:51.266Z,0
2014-09-07T18:13:09.454Z,0
2014-09-07T18:13:27.641Z,0
2014-09-07T18:13:45.831Z,0
2014-09-07T18:14:04.018Z,0
2014-09-07T18:14:22.221Z,0
2014-09-07T18:14:40.409Z,0
2014-09-07T18:14:58.599Z,0
2014-09-07T18:15:16.787Z,0
2014-09-07T18:15:34.974Z,0
2014-09-07T18:15:53.163Z,0
2014-09-07T18:16:11.366Z,0
2014-09-07T18:16:29.553Z,0
2014-09-07T18:16:47.741Z,0
2014-09-07T18:17:05.931Z,0
2014-09-07T18:17:24.119Z,0
2014-09-07T18:17:42.306Z,0
2014-09-07T18:18:00.495Z,0
2014-09-07T18:18:18.682Z,0
2014-09-07T18:18:36.870Z,0
2014-09-07T18:18:55.075Z,0
2014-09-07T18:19:13.263Z,0
2014-09-07T18:19:31.450Z,0
2014-09-07T18:19:49.638Z,0
2014-09-07T18:20:07.827Z,0
2014-09-07T18:20:26.015Z,0
2014-09-07T18:20:44.202Z,0
2014-09-07T18:21:02.407Z,0
2014-09-07T18:21:20.595Z,0
2014-09-07T18:21:38.782Z,0
2014-09-07T18:21:56.970Z,0
2014-09-07T18:22:15.159Z,0
2014-09-07T18:22:33.347Z,0
2014-09-07T18:22:51.534Z,0
2014-09-07T18:23:09.724Z,0
2014-09-07T18:23:27.927Z,0
2014-09-07T18:23:46.114Z,0
2014-09-07T18:24:04.302Z,0
2014-09-07T18:24:22.492Z,0
2014-09-07T18:24:40.680Z,0
2014-09-07T18:24:58.867Z,0
2014-09-07T18:25:17.057Z,0
2014-09-07T18:25:35.244Z,0
2014-09-07T18:25:53.447Z,0
2014-09-07T18:26:11.635Z,0
2014-09-07T18:26:29.823Z,0
2014-09-07T18:26:48.011Z,0
2014-09-07T18:27:06.198Z,0
2014-09-07T18:27:24.389Z,0
2014-09-07T18:27:42.576Z,0
2014-09-07T18:28:00.780Z,0
2014-09-07T18:28:18.967Z,0
2014-09-07T18:28:37.157Z,0
2014-09-07T18:28:55.344Z,0
2014-09-07T18:29:13.547Z,0
2014-09-07T18:29:31.737Z,0
2014-09-07T18:29:49.924Z,0
2014-09-07T18:30:08.112Z,0
2014-09-07T18:30:26.299Z,0
2014-09-07T18:30:44.489Z,0
2014-09-07T18:31:02.692Z,0
2014-09-07T18:31:20.879Z,0
2014-09-07T18:31:39.069Z,0
2014-09-07T18:31:57.256Z,0
2014-09-07T18:32:15.444Z,0
2014-09-07T18:32:33.631Z,0
2014-09-07T18:32:51.835Z,0
2014-09-07T18:33:10.023Z,0
2014-09-07T18:33:28.210Z,0
2014-09-07T18:33:46.401Z,0
2014-09-07T18:34:04.588Z,0
2014-09-07T18:34:22.792Z,0
2014-09-07T18:34:40.979Z,0
2014-09-07T18:34:59.169Z,0
2014-09-07T18:35:17.356Z,0
2014-09-07T18:35:35.544Z,0
2014-09-07T18:35:53.732Z,0
2014-09-07T18:36:11.920Z,0
2014-09-07T18:36:30.123Z,0
2014-09-07T18:36:48.310Z,0
2014-09-07T18:37:06.501Z,0
2014-09-07T18:37:24.688Z,0
2014-09-07T18:37:42.876Z,0
2014-09-07T18:38:01.081Z,0
2014-09-07T18:38:19.268Z,0
2014-09-07T18:38:37.456Z,0
2014-09-07T18:38:55.643Z,0
2014-09-07T18:39:13.833Z,0
2014-09-07T18:39:32.036Z,0
2014-09-07T18:39:50.223Z,0
2014-09-07T18:40:08.413Z,0
2014-09-07T18:40:26.600Z,0
2014-09-07T18:40:44.788Z,0
2014-09-07T18:41:02.975Z,0
2014-09-07T18:41:21.181Z,0
2014-09-07T18:41:39.368Z,0
2014-09-07T18:41:57.556Z,0
2014-09-07T18:42:15.745Z,0
2014-09-07T18:42:33.933Z,0
2014-09-07T18:42:52.120Z,0
2014-09-07T18:43:10.323Z,0
2014-09-07T18:43:28.513Z,0
2014-09-07T18:43:46.700Z,0
2014-09-07T18:44:04.888Z,0
2014-09-07T18:44:23.077Z,0
2014-09-07T18:44:41.265Z,0
2014-09-07T18:44:59.452Z,0
2014-09-07T18:45:17.640Z,0
2014-09-07T18:45:35.845Z,0
2014-09-07T18:45:54.032Z,0
2014-09-07T18:46:12.220Z,0
2014-09-07T18:46:30.409Z,0
2014-09-07T18:46:48.597Z,0
2014-09-07T18:47:06.784Z,0
2014-09-07T18:47:24.987Z,0
2014-09-07T18:47:43.161Z,0
2014-09-07T18:48:01.364Z,0
2014-09-07T18:48:19.552Z,0
2014-09-07T18:48:37.741Z,0
2014-09-07T18:48:55.929Z,0
2014-09-07T18:49:14.116Z,0
2014-09-07T18:49:32.304Z,0
2014-09-07T18:49:50.494Z,0
2014-09-07T18:50:08.698Z,0
2014-09-07T18:50:26.885Z,0
2014-09-07T18:50:45.074Z,0
2014-09-07T18:51:03.261Z,0
2014-09-07T18:51:21.449Z,0
2014-09-07T18:51:39.652Z,0
2014-09-07T18:51:57.842Z,0
2014-09-07T18:52:16.030Z,0
2014-09-07T18:52:34.217Z,0
2014-09-07T18:52:52.407Z,0
2014-09-07T18:53:10.594Z,0
2014-09-07T18:53:28.797Z,0
2014-09-07T18:53:46.985Z,0
2014-09-07T18:54:05.174Z,0
2014-09-07T18:54:23.362Z,0
2014-09-07T18:54:41.549Z,0
2014-09-07T18:54:59.738Z,0
2014-09-07T18:55:17.925Z,0
2014-09-07T18:55:36.144Z,0
2014-09-07T18:55:54.332Z,0
2014-09-07T18:56:12.521Z,0
2014-09-07T18:56:30.724Z,0
2014-09-07T18:56:48.912Z,0
2014-09-07T19:55:30.010Z,541
2014-09-07T19:55:48.198Z,558
2014-09-07T21:01:08.152Z,526
2014-09-07T21:01:26.339Z,494
2014-09-07T21:01:44.527Z,521
2014-09-07T21:02:02.732Z,488
2014-09-07T21:02:20.919Z,512
2014-09-07T21:02:39.138Z,496
2014-09-07T21:02:57.374Z,508
2014-09-07T21:03:15.562Z,523
2014-09-07T21:03:33.749Z,497
2014-09-07T21:03:51.953Z,489
2014-09-07T21:04:10.189Z,491
2014-09-07T21:04:28.439Z,482
2014-09-07T21:04:46.611Z,532
2014-09-07T21:05:04.800Z,516
2014-09-07T21:05:23.003Z,516
2014-09-07T21:05:41.191Z,494
2014-09-07T21:05:59.410Z,519
2014-09-07T21:06:17.990Z,533
2014-09-07T21:06:36.021Z,492
2014-09-07T21:06:54.224Z,528
2014-09-07T21:07:12.414Z,492
2014-09-07T21:07:30.617Z,492
2014-09-07T21:07:48.804Z,518
2014-09-07T21:08:07.007Z,508
2014-09-07T21:08:25.213Z,494
2014-09-07T21:08:43.416Z,492
2014-09-07T21:09:01.603Z,533
2014-09-07T21:09:19.793Z,515
2014-09-07T21:09:37.996Z,495
2014-09-07T21:09:56.183Z,519
2014-09-07T21:10:14.386Z,530
2014-09-07T21:10:32.592Z,500
2014-09-07T21:10:50.779Z,523
2014-09-07T21:11:08.967Z,520
2014-09-07T21:11:27.172Z,488
2014-09-07T21:11:45.359Z,757
2014-09-07T21:12:03.562Z,760
2014-09-07T21:12:21.752Z,757
2014-09-07T21:12:39.955Z,774
2014-09-07T21:12:58.142Z,774
2014-09-07T21:13:16.348Z,774
2014-09-07T21:13:34.535Z,774
2014-09-07T21:13:52.738Z,774
2014-09-07T21:14:10.941Z,774
2014-09-07T21:14:29.131Z,774
2014-09-07T21:14:47.334Z,774
2014-09-07T21:15:05.521Z,774
2014-09-07T21:15:23.727Z,774
2014-09-07T21:15:41.914Z,774
2014-09-07T21:16:00.117Z,774
2014-09-07T21:16:18.305Z,774
2014-09-07T21:16:36.510Z,774
2014-09-07T21:16:54.697Z,774
2014-09-07T21:17:12.900Z,774
2014-09-07T21:17:31.106Z,774
2014-09-07T21:17:49.293Z,774
2014-09-07T21:18:07.496Z,774
2014-09-07T21:18:25.699Z,774
2014-09-07T21:18:43.889Z,774
2014-09-07T21:19:02.092Z,774
2014-09-07T21:19:20.279Z,774
2014-09-07T21:19:38.485Z,774
2014-09-07T21:19:56.672Z,0
2014-09-07T21:20:14.875Z,0
2014-09-07T21:20:33.063Z,0
2014-09-07T21:20:51.252Z,0
2014-09-07T21:21:09.440Z,0
2014-09-07T21:21:27.643Z,0
2014-09-07T21:21:45.832Z,0
2014-09-07T21:22:04.020Z,0
2014-09-07T21:22:22.207Z,0
2014-09-07T21:22:40.395Z,0
2014-09-07T21:22:58.584Z,0
2014-09-07T21:23:16.787Z,0
2014-09-07T21:23:34.975Z,0
2014-09-07T21:23:53.164Z,0
2014-09-07T21:24:11.352Z,0
2014-09-07T21:24:29.539Z,0
2014-09-07T21:24:47.743Z,0
2014-09-07T21:25:05.933Z,0
2014-09-07T21:25:24.121Z,0
2014-09-07T21:25:42.308Z,0
2014-09-07T21:26:00.497Z,0
2014-09-07T21:26:18.700Z,0
2014-09-07T21:26:36.887Z,0
2014-09-07T21:26:55.075Z,0
2014-09-07T21:27:13.264Z,0
2014-09-07T21:27:31.452Z,0
2014-09-07T21:27:49.655Z,0
2014-09-07T21:28:07.844Z,0
2014-09-07T21:28:26.032Z,0
2014-09-07T21:28:44.219Z,0
2014-09-07T21:29:02.407Z,0
2014-09-07T21:29:20.597Z,0
2014-09-07T21:29:38.800Z,0
2014-09-07T21:29:56.988Z,0
2014-09-07T21:30:15.176Z,0
2014-09-07T21:30:33.364Z,0
2014-09-07T21:30:51.551Z,0
2014-09-07T21:31:09.755Z,0
2014-09-07T21:31:27.945Z,0
2014-09-07T21:31:46.133Z,0
2014-09-07T21:32:04.320Z,0
2014-09-07T21:32:22.509Z,0
2014-09-07T21:32:40.712Z,0
2014-09-07T21:32:58.899Z,0
2014-09-07T21:33:17.087Z,0
2014-09-07T21:33:35.277Z,0
2014-09-07T21:33:53.465Z,0
2014-09-07T21:34:11.668Z,0
2014-09-07T21:34:29.857Z,0
2014-09-07T21:34:48.045Z,0
2014-09-07T21:35:06.232Z,0
2014-09-07T21:35:24.420Z,0
2014-09-07T21:35:42.625Z,0
2014-09-07T21:36:00.812Z,0
2014-09-07T21:36:19.000Z,0
2014-09-07T21:36:37.189Z,0
2014-09-07T21:36:55.377Z,0
2014-09-07T21:37:13.580Z,0
2014-09-07T21:37:31.768Z,0
2014-09-07T21:37:49.956Z,0
2014-09-07T21:38:08.144Z,0
2014-09-07T21:38:26.331Z,0
2014-09-07T21:38:44.537Z,0
2014-09-07T21:39:02.725Z,0
2014-09-07T21:39:20.912Z,0
2014-09-07T21:39:39.102Z,0
2014-09-07T21:39:57.289Z,0
2014-09-07T21:40:15.477Z,0
2014-09-07T21:40:33.664Z,0
2014-09-07T21:40:51.869Z,0
2014-09-07T21:41:10.057Z,0
2014-09-07T21:41:28.244Z,0
2014-09-07T21:41:46.434Z,0
2014-09-07T21:42:04.621Z,0
2014-09-07T21:42:22.824Z,0
2014-09-07T21:42:41.012Z,0
2014-09-07T21:42:59.201Z,0
2014-09-07T21:43:17.389Z,0
2014-09-07T21:43:35.576Z,0
2014-09-07T21:43:53.782Z,0
2014-09-07T21:44:11.969Z,0
2014-09-07T21:44:30.157Z,0
2014-09-07T21:44:48.344Z,0
2014-09-07T21:45:06.534Z,0
2014-09-07T21:45:24.737Z,0
2014-09-07T21:45:42.924Z,0
2014-09-07T21:46:01.114Z,0
2014-09-07T21:46:19.301Z,0
2014-09-07T21:46:37.489Z,0
2014-09-07T21:46:55.676Z,0
2014-09-07T21:47:13.866Z,0
2014-09-07T21:47:32.053Z,0
2014-09-07T21:47:50.241Z,0
2014-09-07T21:48:08.446Z,0
2014-09-07T21:48:26.633Z,0
2014-09-07T21:48:44.821Z,0
2014-09-07T21:49:03.008Z,0
2014-09-07T21:49:21.198Z,0
2014-09-07T21:49:39.385Z,0
2014-09-07T21:49:57.588Z,0
2014-09-07T21:50:15.778Z,0
2014-09-07T21:50:33.965Z,0
2014-09-07T21:50:52.153Z,0
2014-09-07T21:51:10.340Z,0
2014-09-07T21:51:28.530Z,0
2014-09-07T21:51:46.717Z,0
2014-09-07T21:52:04.905Z,0
2014-09-07T21:52:23.110Z,0
2014-09-07T21:52:41.298Z,0
2014-09-07T21:52:59.485Z,0
2014-09-07T21:53:17.673Z,0
2014-09-07T21:53:35.862Z,0
2014-09-07T21:53:54.065Z,0
2014-09-07T21:54:12.253Z,0
2014-09-07T21:54:30.442Z,0
2014-09-07T21:54:48.630Z,0
2014-09-07T21:55:06.817Z,0
2014-09-07T21:55:25.005Z,0
2014-09-07T21:55:43.194Z,0
2014-09-07T21:56:01.397Z,0
2014-09-07T21:56:19.585Z,0
2014-09-07T21:56:37.774Z,0
2014-09-07T21:56:55.962Z,0
2014-09-07T21:57:14.149Z,0
2014-09-07T21:57:32.352Z,0
2014-09-07T21:57:50.542Z,0
2014-09-07T21:58:08.729Z,0
2014-09-07T21:58:26.917Z,0
2014-09-07T21:58:45.106Z,0
2014-09-07T21:59:03.310Z,0
2014-09-07T21:59:21.497Z,0
2014-09-07T21:59:39.685Z,0
2014-09-07T21:59:57.874Z,0
2014-09-07T22:00:16.062Z,0
2014-09-07T22:00:34.265Z,0
2014-09-07T22:00:52.454Z,0
2014-09-07T22:01:10.642Z,0
2014-09-07T22:01:28.829Z,0
2014-09-07T22:01:47.017Z,0
2014-09-07T22:02:05.222Z,0
2014-09-07T22:02:23.409Z,0
2014-09-07T22:02:41.597Z,0
2014-09-07T22:02:59.786Z,0
2014-09-07T22:03:17.974Z,0
2014-09-07T22:03:36.161Z,0
2014-09-07T22:03:54.364Z,0
2014-09-07T22:04:12.555Z,0
2014-09-07T22:04:30.742Z,0
2014-09-07T22:04:48.930Z,0
2014-09-07T22:05:07.118Z,0
2014-09-07T22:05:25.306Z,0
2014-09-07T22:05:43.493Z,0
2014-09-07T22:06:01.681Z,0
2014-09-07T22:06:19.887Z,0
2014-09-07T22:06:38.075Z,0
2014-09-07T22:06:56.262Z,0
2014-09-07T22:07:14.452Z,0
2014-09-07T22:07:32.639Z,0
2014-09-07T22:07:50.842Z,0
2014-09-07T22:08:09.030Z,0
2014-09-07T22:08:27.219Z,0
2014-09-07T22:08:45.407Z,0
2014-09-07T22:09:03.610Z,0
2014-09-07T22:09:21.798Z,0
2014-09-07T22:09:39.986Z,0
2014-09-07T22:09:58.173Z,0
2014-09-07T22:10:16.361Z,0
2014-09-07T22:10:34.551Z,0
2014-09-07T22:10:52.739Z,0
2014-09-07T22:11:10.942Z,0
2014-09-07T22:11:29.131Z,0
2014-09-07T22:11:47.319Z,0
2014-09-07T22:12:05.506Z,0
2014-09-07T22:12:23.710Z,0
2014-09-07T22:12:41.899Z,0
2014-09-07T22:13:00.087Z,0
2014-09-07T22:13:18.274Z,0
2014-09-07T22:13:36.478Z,0
2014-09-07T22:13:54.681Z,0
2014-09-07T22:14:12.853Z,0
2014-09-07T22:14:31.041Z,0
2014-09-07T22:14:49.231Z,0
2014-09-07T22:15:07.419Z,0
2014-09-07T22:15:25.622Z,0
2014-09-07T22:15:43.811Z,0
2014-09-07T22:16:01.999Z,0
2014-09-07T22:16:20.186Z,0
2014-09-07T22:16:38.374Z,0
2014-09-07T22:16:56.579Z,0
2014-09-07T22:17:14.766Z,0
2014-09-07T22:17:32.954Z,0
2014-09-07T22:17:51.143Z,0
2014-09-07T22:18:09.347Z,0
2014-09-07T22:18:27.534Z,0
2014-09-07T22:18:45.722Z,0
2014-09-07T22:19:03.911Z,0
2014-09-07T22:19:22.099Z,0
2014-09-07T22:19:40.302Z,0
2014-09-07T22:19:58.491Z,0
2014-09-07T22:20:16.679Z,0
2014-09-07T22:20:34.866Z,0
2014-09-07T22:20:53.069Z,0
2014-09-07T22:21:11.259Z,0
2014-09-07T22:21:29.446Z,0
2014-09-07T22:21:47.634Z,0
2014-09-07T22:22:05.823Z,0
2014-09-07T22:22:24.011Z,0
2014-09-07T22:22:42.214Z,0
2014-09-07T22:23:00.401Z,0
2014-09-07T22:23:18.591Z,0
2014-09-07T22:23:36.778Z,0
2014-09-07T22:23:54.966Z,0
2014-09-07T22:24:13.155Z,0
2014-09-07T22:24:31.359Z,0
2014-09-07T22:24:49.546Z,0
2014-09-07T22:25:07.734Z,0
2014-09-07T22:25:25.923Z,0
2014-09-07T22:25:44.111Z,0
2014-09-07T22:26:02.298Z,0
2014-09-07T22:26:20.488Z,0
2014-09-07T22:26:38.675Z,0
2014-09-07T22:26:56.863Z,0
2014-09-07T22:27:15.050Z,0
2014-09-07T22:27:33.240Z,0
2014-09-07T22:27:51.427Z,0
2014-09-07T22:28:09.615Z,0
2014-09-07T22:28:27.804Z,0
2014-09-07T22:28:45.992Z,0
2014-09-07T22:29:04.179Z,0
2014-09-07T22:29:22.367Z,0
2014-09-07T22:29:40.556Z,0
2014-09-07T22:29:58.744Z,0
2014-09-07T22:30:16.931Z,0
2014-09-07T22:30:35.122Z,0
2014-09-07T22:30:53.309Z,0
2014-09-07T22:31:11.497Z,0
2014-09-07T22:31:29.685Z,0
2014-09-07T22:31:47.873Z,0
2014-09-07T22:32:06.060Z,0
2014-09-07T22:32:24.248Z,0
2014-09-07T22:32:42.437Z,0
2014-09-07T22:33:00.625Z,0
2014-09-07T22:33:18.812Z,0
2014-09-07T22:33:37.002Z,0
2014-09-07T22:33:55.189Z,0
2014-09-07T22:34:13.377Z,0
2014-09-07T22:34:31.564Z,0
2014-09-07T22:34:49.755Z,0
2014-09-07T22:35:07.942Z,0
2014-09-07T22:35:26.130Z,0
2014-09-07T22:35:44.318Z,0
2014-09-07T22:36:02.506Z,0
2014-09-07T22:36:20.693Z,0
2014-09-07T22:36:38.881Z,0
2014-09-07T22:36:57.070Z,0
2014-09-07T22:37:15.258Z,0
2014-09-07T22:37:33.445Z,0
2014-09-07T22:37:51.635Z,0
2014-09-07T22:38:09.822Z,0
2014-09-07T22:38:28.010Z,0
2014-09-07T22:38:46.197Z,0
2014-09-07T22:39:04.388Z,0
2014-09-07T22:39:22.575Z,0
2014-09-07T22:39:40.763Z,0
2014-09-07T22:39:58.951Z,0
2014-09-07T22:40:17.139Z,0
2014-09-07T22:40:35.326Z,0
2014-09-07T22:40:53.514Z,0
2014-09-07T22:41:11.703Z,0
2014-09-07T22:41:29.891Z,0
2014-09-07T22:41:48.078Z,0
2014-09-07T22:42:06.269Z,0
2014-09-07T22:42:24.456Z,0
2014-09-07T22:42:42.644Z,0
2014-09-07T22:43:00.831Z,0
2014-09-07T22:43:19.021Z,0
2014-09-07T22:43:37.208Z,0
2014-09-07T22:43:55.396Z,0
2014-09-07T22:44:13.584Z,0
2014-09-07T22:44:31.772Z,0
2014-09-07T22:44:49.975Z,0
2014-09-07T22:45:08.162Z,0
2014-09-07T22:45:26.353Z,0
2014-09-07T22:45:44.540Z,0
2014-09-07T22:46:02.728Z,0
2014-09-07T22:46:20.916Z,0
2014-09-07T22:46:39.104Z,0
2014-09-07T22:46:57.307Z,0
2014-09-07T22:47:15.494Z,0
2014-09-07T22:47:33.684Z,0
2014-09-07T22:47:51.871Z,0
2014-09-07T22:48:10.059Z,0
2014-09-07T22:48:28.249Z,0
2014-09-07T22:48:46.452Z,0
2014-09-07T22:49:04.640Z,0
2014-09-07T22:49:22.827Z,0
2014-09-07T22:49:41.017Z,0
2014-09-07T22:49:59.204Z,0
2014-09-07T22:50:17.392Z,0
2014-09-07T22:50:35.596Z,0
2014-09-07T22:50:53.784Z,0
2014-09-07T22:51:11.971Z,0
2014-09-07T22:51:30.159Z,0
2014-09-07T22:51:48.349Z,0
2014-09-07T22:52:06.537Z,0
